sensor_id;sensor_type;location;lat;lon;timestamp;temperature;humidity
54429;DHT22;40337;52.978;6.310;2024-01-25T00:01:07;8.40;99.90
54429;DHT22;40337;52.978;6.310;2024-01-25T00:03:33;8.40;99.90
54429;DHT22;40337;52.978;6.310;2024-01-25T00:05:59;8.30;99.90
54429;DHT22;40337;52.978;6.310;2024-01-25T00:08:25;8.30;99.90
54429;DHT22;40337;52.978;6.310;2024-01-25T00:10:51;8.20;99.90
54429;DHT22;40337;52.978;6.310;2024-01-25T00:13:17;8.20;99.90
54429;DHT22;40337;52.978;6.310;2024-01-25T00:15:42;8.20;99.90
54429;DHT22;40337;52.978;6.310;2024-01-25T00:18:08;8.10;99.90
54429;DHT22;40337;52.978;6.310;2024-01-25T00:20:34;8.10;99.90
54429;DHT22;40337;52.978;6.310;2024-01-25T00:22:59;8.10;99.90
54429;DHT22;40337;52.978;6.310;2024-01-25T00:25:25;8.00;99.90
54429;DHT22;40337;52.978;6.310;2024-01-25T00:27:50;8.00;99.90
54429;DHT22;40337;52.978;6.310;2024-01-25T00:30:16;8.00;99.90
54429;DHT22;40337;52.978;6.310;2024-01-25T00:32:42;8.00;99.90
54429;DHT22;40337;52.978;6.310;2024-01-25T00:35:08;7.90;99.90
54429;DHT22;40337;52.978;6.310;2024-01-25T00:37:36;7.90;99.90
54429;DHT22;40337;52.978;6.310;2024-01-25T00:40:02;7.80;99.90
54429;DHT22;40337;52.978;6.310;2024-01-25T00:42:29;7.80;99.90
54429;DHT22;40337;52.978;6.310;2024-01-25T00:44:56;7.80;99.90
54429;DHT22;40337;52.978;6.310;2024-01-25T00:47:22;7.70;99.90
54429;DHT22;40337;52.978;6.310;2024-01-25T00:49:48;7.70;99.90
54429;DHT22;40337;52.978;6.310;2024-01-25T00:52:14;7.60;99.90
54429;DHT22;40337;52.978;6.310;2024-01-25T00:54:40;7.60;99.90
54429;DHT22;40337;52.978;6.310;2024-01-25T00:57:06;7.60;99.90
54429;DHT22;40337;52.978;6.310;2024-01-25T00:59:32;7.50;99.90
54429;DHT22;40337;52.978;6.310;2024-01-25T01:01:58;7.50;99.90
54429;DHT22;40337;52.978;6.310;2024-01-25T01:04:25;7.50;99.90
54429;DHT22;40337;52.978;6.310;2024-01-25T01:06:52;7.50;99.90
54429;DHT22;40337;52.978;6.310;2024-01-25T01:09:17;7.50;99.90
54429;DHT22;40337;52.978;6.310;2024-01-25T01:11:43;7.50;99.90
54429;DHT22;40337;52.978;6.310;2024-01-25T01:14:09;7.50;99.90
54429;DHT22;40337;52.978;6.310;2024-01-25T01:16:35;7.50;99.90
54429;DHT22;40337;52.978;6.310;2024-01-25T01:19:01;7.40;99.90
54429;DHT22;40337;52.978;6.310;2024-01-25T01:21:32;7.40;99.90
54429;DHT22;40337;52.978;6.310;2024-01-25T01:23:58;7.40;99.90
54429;DHT22;40337;52.978;6.310;2024-01-25T01:26:23;7.40;99.90
54429;DHT22;40337;52.978;6.310;2024-01-25T01:28:49;7.40;99.90
54429;DHT22;40337;52.978;6.310;2024-01-25T01:31:15;7.30;99.90
54429;DHT22;40337;52.978;6.310;2024-01-25T01:33:40;7.30;99.90
54429;DHT22;40337;52.978;6.310;2024-01-25T01:36:06;7.30;99.90
54429;DHT22;40337;52.978;6.310;2024-01-25T01:38:32;7.30;99.90
54429;DHT22;40337;52.978;6.310;2024-01-25T01:40:58;7.30;99.90
54429;DHT22;40337;52.978;6.310;2024-01-25T01:43:23;7.30;99.90
54429;DHT22;40337;52.978;6.310;2024-01-25T01:45:49;7.20;99.90
54429;DHT22;40337;52.978;6.310;2024-01-25T01:48:16;7.20;99.90
54429;DHT22;40337;52.978;6.310;2024-01-25T01:50:45;7.20;99.90
54429;DHT22;40337;52.978;6.310;2024-01-25T01:53:32;7.20;99.90
54429;DHT22;40337;52.978;6.310;2024-01-25T01:55:59;7.20;99.90
54429;DHT22;40337;52.978;6.310;2024-01-25T01:58:25;7.20;99.90
54429;DHT22;40337;52.978;6.310;2024-01-25T02:00:53;7.20;99.90
54429;DHT22;40337;52.978;6.310;2024-01-25T02:03:19;7.20;99.90
54429;DHT22;40337;52.978;6.310;2024-01-25T02:05:45;7.10;99.90
54429;DHT22;40337;52.978;6.310;2024-01-25T02:08:10;7.10;99.90
54429;DHT22;40337;52.978;6.310;2024-01-25T02:10:36;7.10;99.90
54429;DHT22;40337;52.978;6.310;2024-01-25T02:13:02;7.10;99.90
54429;DHT22;40337;52.978;6.310;2024-01-25T02:15:27;7.10;99.90
54429;DHT22;40337;52.978;6.310;2024-01-25T02:17:53;7.00;99.90
54429;DHT22;40337;52.978;6.310;2024-01-25T02:20:19;7.00;99.90
54429;DHT22;40337;52.978;6.310;2024-01-25T02:22:44;7.00;99.90
54429;DHT22;40337;52.978;6.310;2024-01-25T02:25:10;7.00;99.90
54429;DHT22;40337;52.978;6.310;2024-01-25T02:27:36;7.00;99.90
54429;DHT22;40337;52.978;6.310;2024-01-25T02:30:05;7.00;99.90
54429;DHT22;40337;52.978;6.310;2024-01-25T02:32:32;6.90;99.90
54429;DHT22;40337;52.978;6.310;2024-01-25T02:34:57;6.90;99.90
54429;DHT22;40337;52.978;6.310;2024-01-25T02:37:23;6.90;99.90
54429;DHT22;40337;52.978;6.310;2024-01-25T02:39:49;6.90;99.90
54429;DHT22;40337;52.978;6.310;2024-01-25T02:42:14;6.90;99.90
54429;DHT22;40337;52.978;6.310;2024-01-25T02:44:42;6.90;99.90
54429;DHT22;40337;52.978;6.310;2024-01-25T02:47:09;6.80;99.90
54429;DHT22;40337;52.978;6.310;2024-01-25T02:49:35;6.80;99.90
54429;DHT22;40337;52.978;6.310;2024-01-25T02:52:01;6.90;99.90
54429;DHT22;40337;52.978;6.310;2024-01-25T02:54:27;6.90;99.90
54429;DHT22;40337;52.978;6.310;2024-01-25T02:56:53;6.90;99.90
54429;DHT22;40337;52.978;6.310;2024-01-25T02:59:18;6.80;99.90
54429;DHT22;40337;52.978;6.310;2024-01-25T03:01:45;6.90;99.90
54429;DHT22;40337;52.978;6.310;2024-01-25T03:04:11;6.80;99.90
54429;DHT22;40337;52.978;6.310;2024-01-25T03:06:37;6.80;99.90
54429;DHT22;40337;52.978;6.310;2024-01-25T03:09:03;6.80;99.90
54429;DHT22;40337;52.978;6.310;2024-01-25T03:11:32;6.80;99.90
54429;DHT22;40337;52.978;6.310;2024-01-25T03:13:57;6.80;99.90
54429;DHT22;40337;52.978;6.310;2024-01-25T03:16:23;6.80;99.90
54429;DHT22;40337;52.978;6.310;2024-01-25T03:18:49;6.80;99.90
54429;DHT22;40337;52.978;6.310;2024-01-25T03:21:14;6.80;99.90
54429;DHT22;40337;52.978;6.310;2024-01-25T03:23:40;6.80;99.90
54429;DHT22;40337;52.978;6.310;2024-01-25T03:26:06;6.80;99.90
54429;DHT22;40337;52.978;6.310;2024-01-25T03:28:33;6.80;99.90
54429;DHT22;40337;52.978;6.310;2024-01-25T03:30:59;6.70;99.90
54429;DHT22;40337;52.978;6.310;2024-01-25T03:33:24;6.80;99.90
54429;DHT22;40337;52.978;6.310;2024-01-25T03:35:51;6.70;99.90
54429;DHT22;40337;52.978;6.310;2024-01-25T03:38:17;6.70;99.90
54429;DHT22;40337;52.978;6.310;2024-01-25T03:40:43;6.70;99.90
54429;DHT22;40337;52.978;6.310;2024-01-25T03:43:08;6.70;99.90
54429;DHT22;40337;52.978;6.310;2024-01-25T03:45:34;6.70;99.90
54429;DHT22;40337;52.978;6.310;2024-01-25T03:47:59;6.60;99.90
54429;DHT22;40337;52.978;6.310;2024-01-25T03:50:26;6.70;99.90
54429;DHT22;40337;52.978;6.310;2024-01-25T03:52:52;6.70;99.90
54429;DHT22;40337;52.978;6.310;2024-01-25T03:55:18;6.70;99.90
54429;DHT22;40337;52.978;6.310;2024-01-25T03:57:44;6.60;99.90
54429;DHT22;40337;52.978;6.310;2024-01-25T04:00:11;6.70;99.90
54429;DHT22;40337;52.978;6.310;2024-01-25T04:02:37;6.60;99.90
54429;DHT22;40337;52.978;6.310;2024-01-25T04:05:03;6.70;99.90
54429;DHT22;40337;52.978;6.310;2024-01-25T04:07:29;6.50;99.90
54429;DHT22;40337;52.978;6.310;2024-01-25T04:09:54;6.50;99.90
54429;DHT22;40337;52.978;6.310;2024-01-25T04:12:20;6.60;99.90
54429;DHT22;40337;52.978;6.310;2024-01-25T04:14:46;6.50;99.90
54429;DHT22;40337;52.978;6.310;2024-01-25T04:17:11;6.40;99.90
54429;DHT22;40337;52.978;6.310;2024-01-25T04:19:37;6.40;99.90
54429;DHT22;40337;52.978;6.310;2024-01-25T04:22:03;6.50;99.90
54429;DHT22;40337;52.978;6.310;2024-01-25T04:24:28;6.40;99.90
54429;DHT22;40337;52.978;6.310;2024-01-25T04:26:54;6.30;99.90
54429;DHT22;40337;52.978;6.310;2024-01-25T04:29:20;6.30;99.90
54429;DHT22;40337;52.978;6.310;2024-01-25T04:31:45;6.40;99.90
54429;DHT22;40337;52.978;6.310;2024-01-25T04:34:15;6.30;99.90
54429;DHT22;40337;52.978;6.310;2024-01-25T04:36:41;6.20;99.90
54429;DHT22;40337;52.978;6.310;2024-01-25T04:39:07;6.20;99.90
54429;DHT22;40337;52.978;6.310;2024-01-25T04:41:32;6.20;99.90
54429;DHT22;40337;52.978;6.310;2024-01-25T04:43:58;6.10;99.90
54429;DHT22;40337;52.978;6.310;2024-01-25T04:46:23;6.10;99.90
54429;DHT22;40337;52.978;6.310;2024-01-25T04:48:49;6.10;99.90
54429;DHT22;40337;52.978;6.310;2024-01-25T04:51:19;6.00;99.90
54429;DHT22;40337;52.978;6.310;2024-01-25T04:53:48;6.00;99.90
54429;DHT22;40337;52.978;6.310;2024-01-25T04:56:13;6.00;99.90
54429;DHT22;40337;52.978;6.310;2024-01-25T04:58:39;6.00;99.90
54429;DHT22;40337;52.978;6.310;2024-01-25T05:01:05;6.00;99.90
54429;DHT22;40337;52.978;6.310;2024-01-25T05:03:33;6.00;99.90
54429;DHT22;40337;52.978;6.310;2024-01-25T05:05:58;5.90;99.90
54429;DHT22;40337;52.978;6.310;2024-01-25T05:08:24;5.90;99.90
54429;DHT22;40337;52.978;6.310;2024-01-25T05:10:50;5.90;99.90
54429;DHT22;40337;52.978;6.310;2024-01-25T05:13:15;5.90;99.90
54429;DHT22;40337;52.978;6.310;2024-01-25T05:15:41;5.90;99.90
54429;DHT22;40337;52.978;6.310;2024-01-25T05:18:07;5.80;99.90
54429;DHT22;40337;52.978;6.310;2024-01-25T05:20:33;5.80;99.90
54429;DHT22;40337;52.978;6.310;2024-01-25T05:23:01;5.80;99.90
54429;DHT22;40337;52.978;6.310;2024-01-25T05:25:27;5.90;99.90
54429;DHT22;40337;52.978;6.310;2024-01-25T05:27:53;5.80;99.90
54429;DHT22;40337;52.978;6.310;2024-01-25T05:30:19;5.80;99.90
54429;DHT22;40337;52.978;6.310;2024-01-25T05:32:45;5.70;99.90
54429;DHT22;40337;52.978;6.310;2024-01-25T05:35:11;5.60;99.90
54429;DHT22;40337;52.978;6.310;2024-01-25T05:37:37;5.60;99.90
54429;DHT22;40337;52.978;6.310;2024-01-25T05:40:03;5.60;99.90
54429;DHT22;40337;52.978;6.310;2024-01-25T05:42:28;5.50;99.90
54429;DHT22;40337;52.978;6.310;2024-01-25T05:44:54;5.50;99.90
54429;DHT22;40337;52.978;6.310;2024-01-25T05:47:20;5.40;99.90
54429;DHT22;40337;52.978;6.310;2024-01-25T05:50:06;5.40;99.90
54429;DHT22;40337;52.978;6.310;2024-01-25T05:52:51;5.30;99.90
54429;DHT22;40337;52.978;6.310;2024-01-25T05:55:36;5.10;99.90
54429;DHT22;40337;52.978;6.310;2024-01-25T05:58:01;5.00;99.90
54429;DHT22;40337;52.978;6.310;2024-01-25T06:00:27;4.90;99.90
54429;DHT22;40337;52.978;6.310;2024-01-25T06:02:53;5.00;99.90
54429;DHT22;40337;52.978;6.310;2024-01-25T06:05:19;4.90;99.90
54429;DHT22;40337;52.978;6.310;2024-01-25T06:07:45;4.90;99.90
54429;DHT22;40337;52.978;6.310;2024-01-25T06:10:11;4.90;99.90
54429;DHT22;40337;52.978;6.310;2024-01-25T06:12:36;4.80;99.90
54429;DHT22;40337;52.978;6.310;2024-01-25T06:15:02;4.70;99.90
54429;DHT22;40337;52.978;6.310;2024-01-25T06:17:28;4.70;99.90
54429;DHT22;40337;52.978;6.310;2024-01-25T06:19:53;4.60;99.90
54429;DHT22;40337;52.978;6.310;2024-01-25T06:22:19;4.60;99.90
54429;DHT22;40337;52.978;6.310;2024-01-25T06:24:44;4.70;99.90
54429;DHT22;40337;52.978;6.310;2024-01-25T06:27:10;4.70;99.90
54429;DHT22;40337;52.978;6.310;2024-01-25T06:29:36;4.80;99.90
54429;DHT22;40337;52.978;6.310;2024-01-25T06:32:01;4.70;99.90
54429;DHT22;40337;52.978;6.310;2024-01-25T06:34:27;4.70;99.90
54429;DHT22;40337;52.978;6.310;2024-01-25T06:36:53;4.70;99.90
54429;DHT22;40337;52.978;6.310;2024-01-25T06:39:19;4.70;99.90
54429;DHT22;40337;52.978;6.310;2024-01-25T06:41:44;4.70;99.90
54429;DHT22;40337;52.978;6.310;2024-01-25T06:44:10;4.70;99.90
54429;DHT22;40337;52.978;6.310;2024-01-25T06:46:35;4.60;99.90
54429;DHT22;40337;52.978;6.310;2024-01-25T06:49:01;4.60;99.90
54429;DHT22;40337;52.978;6.310;2024-01-25T06:51:28;4.60;99.90
54429;DHT22;40337;52.978;6.310;2024-01-25T06:53:53;4.60;99.90
54429;DHT22;40337;52.978;6.310;2024-01-25T06:56:19;4.60;99.90
54429;DHT22;40337;52.978;6.310;2024-01-25T06:58:45;4.60;99.90
54429;DHT22;40337;52.978;6.310;2024-01-25T07:01:10;4.50;99.90
54429;DHT22;40337;52.978;6.310;2024-01-25T07:03:36;4.60;99.90
54429;DHT22;40337;52.978;6.310;2024-01-25T07:06:02;4.50;99.90
54429;DHT22;40337;52.978;6.310;2024-01-25T07:08:27;4.50;99.90
54429;DHT22;40337;52.978;6.310;2024-01-25T07:10:53;4.40;99.90
54429;DHT22;40337;52.978;6.310;2024-01-25T07:13:19;4.50;99.90
54429;DHT22;40337;52.978;6.310;2024-01-25T07:15:46;4.50;99.90
54429;DHT22;40337;52.978;6.310;2024-01-25T07:18:12;4.50;99.90
54429;DHT22;40337;52.978;6.310;2024-01-25T07:20:37;4.40;99.90
54429;DHT22;40337;52.978;6.310;2024-01-25T07:23:03;4.40;99.90
54429;DHT22;40337;52.978;6.310;2024-01-25T07:25:28;4.50;99.90
54429;DHT22;40337;52.978;6.310;2024-01-25T07:27:54;4.50;99.90
54429;DHT22;40337;52.978;6.310;2024-01-25T07:30:20;4.50;99.90
54429;DHT22;40337;52.978;6.310;2024-01-25T07:32:45;4.60;99.90
54429;DHT22;40337;52.978;6.310;2024-01-25T07:35:12;4.60;99.90
54429;DHT22;40337;52.978;6.310;2024-01-25T07:37:39;4.70;99.90
54429;DHT22;40337;52.978;6.310;2024-01-25T07:40:06;4.70;99.90
54429;DHT22;40337;52.978;6.310;2024-01-25T07:42:32;4.70;99.90
54429;DHT22;40337;52.978;6.310;2024-01-25T07:44:58;4.70;99.90
54429;DHT22;40337;52.978;6.310;2024-01-25T07:47:23;4.80;99.90
54429;DHT22;40337;52.978;6.310;2024-01-25T07:49:49;4.80;99.90
54429;DHT22;40337;52.978;6.310;2024-01-25T07:52:15;4.90;99.90
54429;DHT22;40337;52.978;6.310;2024-01-25T07:54:40;4.90;99.90
54429;DHT22;40337;52.978;6.310;2024-01-25T07:57:06;4.90;99.90
54429;DHT22;40337;52.978;6.310;2024-01-25T07:59:32;5.00;99.90
54429;DHT22;40337;52.978;6.310;2024-01-25T08:01:57;5.00;99.90
54429;DHT22;40337;52.978;6.310;2024-01-25T08:04:23;5.10;99.90
54429;DHT22;40337;52.978;6.310;2024-01-25T08:06:48;5.10;99.90
54429;DHT22;40337;52.978;6.310;2024-01-25T08:09:14;5.10;99.90
54429;DHT22;40337;52.978;6.310;2024-01-25T08:11:40;5.20;99.90
54429;DHT22;40337;52.978;6.310;2024-01-25T08:14:05;5.20;99.90
54429;DHT22;40337;52.978;6.310;2024-01-25T08:16:31;5.30;99.90
54429;DHT22;40337;52.978;6.310;2024-01-25T08:18:57;5.30;99.90
54429;DHT22;40337;52.978;6.310;2024-01-25T08:21:24;5.40;99.90
54429;DHT22;40337;52.978;6.310;2024-01-25T08:23:50;5.30;99.90
54429;DHT22;40337;52.978;6.310;2024-01-25T08:26:15;5.40;99.90
54429;DHT22;40337;52.978;6.310;2024-01-25T08:28:42;5.50;99.90
54429;DHT22;40337;52.978;6.310;2024-01-25T08:31:11;5.50;99.90
54429;DHT22;40337;52.978;6.310;2024-01-25T08:33:39;5.50;99.90
54429;DHT22;40337;52.978;6.310;2024-01-25T08:36:07;5.50;99.90
54429;DHT22;40337;52.978;6.310;2024-01-25T08:38:33;5.50;99.90
54429;DHT22;40337;52.978;6.310;2024-01-25T08:40:58;5.50;99.90
54429;DHT22;40337;52.978;6.310;2024-01-25T08:43:24;5.50;99.90
54429;DHT22;40337;52.978;6.310;2024-01-25T08:45:50;5.50;99.90
54429;DHT22;40337;52.978;6.310;2024-01-25T08:48:15;5.40;99.90
54429;DHT22;40337;52.978;6.310;2024-01-25T08:50:41;5.40;99.90
54429;DHT22;40337;52.978;6.310;2024-01-25T08:53:06;5.40;99.90
54429;DHT22;40337;52.978;6.310;2024-01-25T08:55:32;5.40;99.90
54429;DHT22;40337;52.978;6.310;2024-01-25T08:57:58;5.50;99.90
54429;DHT22;40337;52.978;6.310;2024-01-25T09:00:23;5.50;99.90
54429;DHT22;40337;52.978;6.310;2024-01-25T09:02:49;5.50;99.90
54429;DHT22;40337;52.978;6.310;2024-01-25T09:05:15;5.60;99.90
54429;DHT22;40337;52.978;6.310;2024-01-25T09:07:40;5.60;99.90
54429;DHT22;40337;52.978;6.310;2024-01-25T09:10:07;5.60;99.90
54429;DHT22;40337;52.978;6.310;2024-01-25T09:12:35;5.70;99.90
54429;DHT22;40337;52.978;6.310;2024-01-25T09:15:01;5.90;99.90
54429;DHT22;40337;52.978;6.310;2024-01-25T09:17:27;6.00;99.90
54429;DHT22;40337;52.978;6.310;2024-01-25T09:19:52;6.10;99.90
54429;DHT22;40337;52.978;6.310;2024-01-25T09:22:18;6.10;99.90
54429;DHT22;40337;52.978;6.310;2024-01-25T09:24:47;6.20;99.90
54429;DHT22;40337;52.978;6.310;2024-01-25T09:27:13;6.20;99.90
54429;DHT22;40337;52.978;6.310;2024-01-25T09:29:40;6.30;99.90
54429;DHT22;40337;52.978;6.310;2024-01-25T09:32:09;6.30;99.90
54429;DHT22;40337;52.978;6.310;2024-01-25T09:34:38;6.30;99.90
54429;DHT22;40337;52.978;6.310;2024-01-25T09:37:04;6.40;99.90
54429;DHT22;40337;52.978;6.310;2024-01-25T09:39:33;6.40;99.90
54429;DHT22;40337;52.978;6.310;2024-01-25T09:42:02;6.40;99.90
54429;DHT22;40337;52.978;6.310;2024-01-25T09:44:28;6.40;99.90
54429;DHT22;40337;52.978;6.310;2024-01-25T09:46:54;6.50;99.90
54429;DHT22;40337;52.978;6.310;2024-01-25T09:49:19;6.40;99.90
54429;DHT22;40337;52.978;6.310;2024-01-25T09:51:47;6.40;99.90
54429;DHT22;40337;52.978;6.310;2024-01-25T09:54:15;6.50;99.90
54429;DHT22;40337;52.978;6.310;2024-01-25T09:56:41;6.40;99.90
54429;DHT22;40337;52.978;6.310;2024-01-25T09:59:08;6.40;99.90
54429;DHT22;40337;52.978;6.310;2024-01-25T10:01:34;6.50;99.90
54429;DHT22;40337;52.978;6.310;2024-01-25T10:04:00;6.50;99.90
54429;DHT22;40337;52.978;6.310;2024-01-25T10:06:26;6.60;99.90
54429;DHT22;40337;52.978;6.310;2024-01-25T10:08:53;6.60;99.90
54429;DHT22;40337;52.978;6.310;2024-01-25T10:11:19;6.70;99.90
54429;DHT22;40337;52.978;6.310;2024-01-25T10:13:45;6.70;99.90
54429;DHT22;40337;52.978;6.310;2024-01-25T10:16:15;6.70;99.90
54429;DHT22;40337;52.978;6.310;2024-01-25T10:18:46;6.70;99.90
54429;DHT22;40337;52.978;6.310;2024-01-25T10:21:13;6.70;99.90
54429;DHT22;40337;52.978;6.310;2024-01-25T10:23:40;6.70;99.90
54429;DHT22;40337;52.978;6.310;2024-01-25T10:26:09;6.80;99.90
54429;DHT22;40337;52.978;6.310;2024-01-25T10:28:37;6.90;99.90
54429;DHT22;40337;52.978;6.310;2024-01-25T10:31:03;6.90;99.90
54429;DHT22;40337;52.978;6.310;2024-01-25T10:33:33;6.90;99.90
54429;DHT22;40337;52.978;6.310;2024-01-25T10:36:03;7.00;99.90
54429;DHT22;40337;52.978;6.310;2024-01-25T10:38:35;7.20;99.90
54429;DHT22;40337;52.978;6.310;2024-01-25T10:41:03;7.30;99.90
54429;DHT22;40337;52.978;6.310;2024-01-25T10:43:29;7.50;99.90
54429;DHT22;40337;52.978;6.310;2024-01-25T10:45:58;7.60;99.90
54429;DHT22;40337;52.978;6.310;2024-01-25T10:48:28;7.80;99.90
54429;DHT22;40337;52.978;6.310;2024-01-25T10:50:57;8.10;99.90
54429;DHT22;40337;52.978;6.310;2024-01-25T10:53:26;8.30;99.90
54429;DHT22;40337;52.978;6.310;2024-01-25T10:55:54;8.30;99.90
54429;DHT22;40337;52.978;6.310;2024-01-25T10:58:20;8.50;99.90
54429;DHT22;40337;52.978;6.310;2024-01-25T11:00:55;8.50;99.90
54429;DHT22;40337;52.978;6.310;2024-01-25T11:03:27;8.70;99.90
54429;DHT22;40337;52.978;6.310;2024-01-25T11:06:10;8.90;99.90
54429;DHT22;40337;52.978;6.310;2024-01-25T11:08:37;9.00;99.90
54429;DHT22;40337;52.978;6.310;2024-01-25T11:11:06;9.30;99.90
54429;DHT22;40337;52.978;6.310;2024-01-25T11:13:32;9.40;99.90
54429;DHT22;40337;52.978;6.310;2024-01-25T11:15:58;9.60;99.90
54429;DHT22;40337;52.978;6.310;2024-01-25T11:18:27;9.70;99.90
54429;DHT22;40337;52.978;6.310;2024-01-25T11:20:53;9.70;99.90
54429;DHT22;40337;52.978;6.310;2024-01-25T11:23:19;9.80;99.90
54429;DHT22;40337;52.978;6.310;2024-01-25T11:25:47;10.00;99.90
54429;DHT22;40337;52.978;6.310;2024-01-25T11:28:14;10.20;99.90
54429;DHT22;40337;52.978;6.310;2024-01-25T11:30:41;10.30;99.90
54429;DHT22;40337;52.978;6.310;2024-01-25T11:33:07;10.20;99.90
54429;DHT22;40337;52.978;6.310;2024-01-25T11:35:34;10.00;99.90
54429;DHT22;40337;52.978;6.310;2024-01-25T11:38:00;9.70;99.90
54429;DHT22;40337;52.978;6.310;2024-01-25T11:40:26;9.50;99.90
54429;DHT22;40337;52.978;6.310;2024-01-25T11:42:53;9.20;99.90
54429;DHT22;40337;52.978;6.310;2024-01-25T11:45:19;9.10;99.90
54429;DHT22;40337;52.978;6.310;2024-01-25T11:47:45;8.90;99.90
54429;DHT22;40337;52.978;6.310;2024-01-25T11:50:12;8.70;99.90
54429;DHT22;40337;52.978;6.310;2024-01-25T11:52:38;8.60;99.90
54429;DHT22;40337;52.978;6.310;2024-01-25T11:55:08;8.50;99.90
54429;DHT22;40337;52.978;6.310;2024-01-25T11:57:36;8.50;99.90
54429;DHT22;40337;52.978;6.310;2024-01-25T12:00:04;8.50;99.90
54429;DHT22;40337;52.978;6.310;2024-01-25T12:02:31;8.50;99.90
54429;DHT22;40337;52.978;6.310;2024-01-25T12:04:57;8.50;99.90
54429;DHT22;40337;52.978;6.310;2024-01-25T12:07:23;8.40;99.90
54429;DHT22;40337;52.978;6.310;2024-01-25T12:12:28;9.00;99.90
54429;DHT22;40337;52.978;6.310;2024-01-25T12:15:01;9.40;99.90
54429;DHT22;40337;52.978;6.310;2024-01-25T12:17:29;9.80;99.90
54429;DHT22;40337;52.978;6.310;2024-01-25T12:19:59;9.90;99.90
54429;DHT22;40337;52.978;6.310;2024-01-25T12:22:28;9.80;99.90
54429;DHT22;40337;52.978;6.310;2024-01-25T12:24:55;9.70;99.90
54429;DHT22;40337;52.978;6.310;2024-01-25T12:27:22;9.60;99.90
54429;DHT22;40337;52.978;6.310;2024-01-25T12:29:48;9.60;99.90
54429;DHT22;40337;52.978;6.310;2024-01-25T12:32:14;9.50;99.90
54429;DHT22;40337;52.978;6.310;2024-01-25T12:34:40;9.40;99.90
54429;DHT22;40337;52.978;6.310;2024-01-25T12:37:07;9.20;99.90
54429;DHT22;40337;52.978;6.310;2024-01-25T12:39:33;9.20;99.90
54429;DHT22;40337;52.978;6.310;2024-01-25T12:41:59;9.20;99.90
54429;DHT22;40337;52.978;6.310;2024-01-25T12:44:24;9.20;99.90
54429;DHT22;40337;52.978;6.310;2024-01-25T12:46:50;9.20;99.90
54429;DHT22;40337;52.978;6.310;2024-01-25T12:49:17;9.10;99.90
54429;DHT22;40337;52.978;6.310;2024-01-25T12:51:42;9.10;99.90
54429;DHT22;40337;52.978;6.310;2024-01-25T12:54:28;9.00;99.90
54429;DHT22;40337;52.978;6.310;2024-01-25T12:56:54;9.00;99.90
54429;DHT22;40337;52.978;6.310;2024-01-25T12:59:20;9.00;99.90
54429;DHT22;40337;52.978;6.310;2024-01-25T13:01:45;8.90;99.90
54429;DHT22;40337;52.978;6.310;2024-01-25T13:04:11;8.90;99.90
54429;DHT22;40337;52.978;6.310;2024-01-25T13:06:37;9.00;99.90
54429;DHT22;40337;52.978;6.310;2024-01-25T13:09:03;9.00;99.90
54429;DHT22;40337;52.978;6.310;2024-01-25T13:11:29;9.00;99.90
54429;DHT22;40337;52.978;6.310;2024-01-25T13:13:55;9.00;99.90
54429;DHT22;40337;52.978;6.310;2024-01-25T13:16:21;9.00;99.90
54429;DHT22;40337;52.978;6.310;2024-01-25T13:18:46;9.00;99.90
54429;DHT22;40337;52.978;6.310;2024-01-25T13:21:12;9.00;99.90
54429;DHT22;40337;52.978;6.310;2024-01-25T13:23:37;9.00;99.90
54429;DHT22;40337;52.978;6.310;2024-01-25T13:26:03;9.00;99.90
54429;DHT22;40337;52.978;6.310;2024-01-25T13:28:29;9.00;99.90
54429;DHT22;40337;52.978;6.310;2024-01-25T13:30:56;9.00;99.90
54429;DHT22;40337;52.978;6.310;2024-01-25T13:33:22;9.00;99.90
54429;DHT22;40337;52.978;6.310;2024-01-25T13:35:47;8.90;99.90
54429;DHT22;40337;52.978;6.310;2024-01-25T13:38:13;8.90;99.90
54429;DHT22;40337;52.978;6.310;2024-01-25T13:40:40;8.90;99.90
54429;DHT22;40337;52.978;6.310;2024-01-25T13:43:06;8.90;99.90
54429;DHT22;40337;52.978;6.310;2024-01-25T13:45:32;8.90;99.90
54429;DHT22;40337;52.978;6.310;2024-01-25T13:47:57;8.90;99.90
54429;DHT22;40337;52.978;6.310;2024-01-25T13:50:23;9.00;99.90
54429;DHT22;40337;52.978;6.310;2024-01-25T13:52:49;8.90;99.90
54429;DHT22;40337;52.978;6.310;2024-01-25T13:55:14;9.00;99.90
54429;DHT22;40337;52.978;6.310;2024-01-25T13:57:40;8.90;99.90
54429;DHT22;40337;52.978;6.310;2024-01-25T14:00:06;8.90;99.90
54429;DHT22;40337;52.978;6.310;2024-01-25T14:02:33;8.90;99.90
54429;DHT22;40337;52.978;6.310;2024-01-25T14:05:00;8.90;99.90
54429;DHT22;40337;52.978;6.310;2024-01-25T14:07:25;8.90;99.90
54429;DHT22;40337;52.978;6.310;2024-01-25T14:09:51;8.90;99.90
54429;DHT22;40337;52.978;6.310;2024-01-25T14:12:20;8.90;99.90
54429;DHT22;40337;52.978;6.310;2024-01-25T14:14:46;8.90;99.90
54429;DHT22;40337;52.978;6.310;2024-01-25T14:17:12;8.80;99.90
54429;DHT22;40337;52.978;6.310;2024-01-25T14:19:37;8.80;99.90
54429;DHT22;40337;52.978;6.310;2024-01-25T14:22:03;8.70;99.90
54429;DHT22;40337;52.978;6.310;2024-01-25T14:24:29;8.70;99.90
54429;DHT22;40337;52.978;6.310;2024-01-25T14:26:54;8.70;99.90
54429;DHT22;40337;52.978;6.310;2024-01-25T14:29:20;8.60;99.90
54429;DHT22;40337;52.978;6.310;2024-01-25T14:31:45;8.60;99.90
54429;DHT22;40337;52.978;6.310;2024-01-25T14:34:11;8.60;99.90
54429;DHT22;40337;52.978;6.310;2024-01-25T14:36:37;8.50;99.90
54429;DHT22;40337;52.978;6.310;2024-01-25T14:39:03;8.50;99.90
54429;DHT22;40337;52.978;6.310;2024-01-25T14:41:29;8.50;99.90
54429;DHT22;40337;52.978;6.310;2024-01-25T14:43:56;8.50;99.90
54429;DHT22;40337;52.978;6.310;2024-01-25T14:46:21;8.50;99.90
54429;DHT22;40337;52.978;6.310;2024-01-25T14:48:47;8.50;99.90
54429;DHT22;40337;52.978;6.310;2024-01-25T14:51:13;8.60;99.90
54429;DHT22;40337;52.978;6.310;2024-01-25T14:53:38;8.60;99.90
54429;DHT22;40337;52.978;6.310;2024-01-25T14:56:04;8.50;99.90
54429;DHT22;40337;52.978;6.310;2024-01-25T14:58:30;8.50;99.90
54429;DHT22;40337;52.978;6.310;2024-01-25T15:00:56;8.50;99.90
54429;DHT22;40337;52.978;6.310;2024-01-25T15:03:22;8.50;99.90
54429;DHT22;40337;52.978;6.310;2024-01-25T15:05:48;8.50;99.90
54429;DHT22;40337;52.978;6.310;2024-01-25T15:08:13;8.50;99.90
54429;DHT22;40337;52.978;6.310;2024-01-25T15:10:39;8.50;99.90
54429;DHT22;40337;52.978;6.310;2024-01-25T15:13:05;8.50;99.90
54429;DHT22;40337;52.978;6.310;2024-01-25T15:15:30;8.50;99.90
54429;DHT22;40337;52.978;6.310;2024-01-25T15:17:56;8.50;99.90
54429;DHT22;40337;52.978;6.310;2024-01-25T15:20:22;8.50;99.90
54429;DHT22;40337;52.978;6.310;2024-01-25T15:22:49;8.50;99.90
54429;DHT22;40337;52.978;6.310;2024-01-25T15:25:15;8.50;99.90
54429;DHT22;40337;52.978;6.310;2024-01-25T15:27:40;8.50;99.90
54429;DHT22;40337;52.978;6.310;2024-01-25T15:30:06;8.40;99.90
54429;DHT22;40337;52.978;6.310;2024-01-25T15:32:34;8.40;99.90
54429;DHT22;40337;52.978;6.310;2024-01-25T15:34:59;8.40;99.90
54429;DHT22;40337;52.978;6.310;2024-01-25T15:37:25;8.40;99.90
54429;DHT22;40337;52.978;6.310;2024-01-25T15:39:51;8.40;99.90
54429;DHT22;40337;52.978;6.310;2024-01-25T15:42:16;8.40;99.90